METAR rapporter

 

EKCH - Copenhagen/Kastr, Denmark
Afstand til vejrstation: SØ 11km
Opdateret: 06/06/2020 11:50
Mest skyet
Mest skyet
 Vind retning VSV
Vind: VSV 31 km/h
Temperatur: 13°C
Dugpunkt: 8°C
Fugtighed: 72%
Barometer: 995 hPa
Skyer: Mest skyet
Sigtbarhed: 10 km
Sky detaljer: Få skyer 610 m
Mest skyet 1585 m
2020/06/06 09:50 EKCH 060950Z 24017KT 9999 FEW020CB BKN052 13/08 Q0995 TEMPO 23018G35KT SHRA
EKRK - Copenhagen/Roski, Denmark
Afstand til vejrstation: VSV 29km
Opdateret: 06/06/2020 11:50
Delvist skyet
Delvist skyet
 Vind retning SV
Vind: SV 37 km/h
Temperatur: 14°C
Dugpunkt: 4°C
Fugtighed: 51%
Barometer: 995 hPa
Skyer: Delvist skyet
Sigtbarhed: 10 km
Sky detaljer: Delvist skyet 1219 m
2020/06/06 09:50 EKRK 060950Z AUTO 23020KT 9999 SCT040/// 14/04 Q0995